Time;durP1;ratioP1;P1;durP2;ratioP2;P2;SDS_P1;SDS_P2;PMS_P1;PMS_P2;Temp;Humidity;BMP_temperature;BMP_pressure;BME280_temperature;BME280_humidity;BME280_pressure;Samples;Min_cycle;Max_cycle;Signal;HPM_P1;HPM_P2
2022/02/18 00:00:47;;;;;;;4.30;1.70;;;;;;;;;;5053439;28;20479;-72
2022/02/18 00:03:14;;;;;;;1.92;1.30;;;;;;;;;;5053597;28;20120;-73
2022/02/18 00:05:41;;;;;;;1.20;1.10;;;;;;;;;;5052144;28;20074;-72
2022/02/18 00:08:06;;;;;;;1.08;0.98;;;;;;;;;;5052085;28;20147;-72
2022/02/18 00:10:32;;;;;;;2.30;1.23;;;;;;;;;;5053398;28;20032;-73
2022/02/18 00:12:57;;;;;;;3.85;1.50;;;;;;;;;;5053666;28;20021;-73
2022/02/18 00:15:27;;;;;;;2.17;1.33;;;;;;;;;;5053268;28;20023;-75
2022/02/18 00:17:55;;;;;;;2.63;1.20;;;;;;;;;;5052108;28;20375;-74
2022/02/18 00:20:20;;;;;;;1.75;1.25;;;;;;;;;;5053457;28;20111;-73
2022/02/18 00:22:46;;;;;;;2.10;1.00;;;;;;;;;;5053161;28;20127;-73
2022/02/18 00:25:13;;;;;;;3.03;1.42;;;;;;;;;;5053328;28;20497;-73
2022/02/18 00:27:43;;;;;;;;;;;;;;;;;;5053817;28;20041;-74
2022/02/18 00:30:09;;;;;;;1.50;1.00;;;;;;;;;;5051762;28;19919;-73
2022/02/18 00:32:35;;;;;;;2.25;1.00;;;;;;;;;;5051970;28;20025;-73
2022/02/18 00:35:02;;;;;;;2.13;1.00;;;;;;;;;;5051834;28;20032;-73
2022/02/18 00:37:28;;;;;;;5.25;1.38;;;;;;;;;;5052256;28;20009;-74
2022/02/18 00:39:56;;;;;;;2.30;1.30;;;;;;;;;;5054830;28;20033;-72
2022/02/18 00:42:23;;;;;;;4.43;1.00;;;;;;;;;;5055773;28;20036;-72
2022/02/18 00:44:49;;;;;;;2.20;1.02;;;;;;;;;;5056947;28;20037;-72
2022/02/18 00:47:14;;;;;;;1.23;0.93;;;;;;;;;;5056470;28;20032;-73
2022/02/18 00:49:40;;;;;;;0.80;0.73;;;;;;;;;;5056596;28;20028;-72
2022/02/18 00:52:06;;;;;;;2.35;0.80;;;;;;;;;;5055515;28;20067;-72
2022/02/18 00:54:32;;;;;;;2.63;0.95;;;;;;;;;;5055451;28;20070;-71
2022/02/18 00:56:57;;;;;;;2.33;0.82;;;;;;;;;;5055407;28;20013;-72
2022/02/18 00:59:24;;;;;;;1.80;0.80;;;;;;;;;;5056685;28;20395;-72
2022/02/18 01:01:49;;;;;;;2.75;1.10;;;;;;;;;;5056835;28;20044;-72
2022/02/18 01:04:15;;;;;;;1.27;0.93;;;;;;;;;;5056497;28;20495;-72
2022/02/18 01:06:41;;;;;;;1.75;0.70;;;;;;;;;;5038721;28;20408;-73
2022/02/18 01:09:07;;;;;;;1.02;0.65;;;;;;;;;;5055243;28;20036;-74
2022/02/18 01:11:32;;;;;;;3.53;0.93;;;;;;;;;;5055297;28;20021;-73
2022/02/18 01:14:00;;;;;;;1.42;0.80;;;;;;;;;;5056545;28;20464;-73
2022/02/18 01:16:27;;;;;;;1.38;0.90;;;;;;;;;;5055190;28;20036;-73
2022/02/18 01:18:57;;;;;;;2.05;0.77;;;;;;;;;;5055238;28;20029;-73
2022/02/18 01:21:23;;;;;;;0.73;0.50;;;;;;;;;;5054786;28;20094;-73
2022/02/18 01:23:49;;;;;;;1.73;0.98;;;;;;;;;;5054930;28;20031;-71
2022/02/18 01:26:15;;;;;;;1.50;0.77;;;;;;;;;;5055141;28;20112;-72
2022/02/18 01:28:41;;;;;;;2.65;0.60;;;;;;;;;;5054978;28;20040;-72
2022/02/18 01:31:07;;;;;;;1.55;0.77;;;;;;;;;;5054917;28;20016;-73
2022/02/18 01:33:32;;;;;;;1.45;0.77;;;;;;;;;;5054731;28;20075;-73
2022/02/18 01:35:58;;;;;;;4.18;0.93;;;;;;;;;;5054994;28;20017;-75
2022/02/18 01:38:24;;;;;;;4.43;0.90;;;;;;;;;;5054771;28;20025;-74
2022/02/18 01:40:50;;;;;;;0.45;0.45;;;;;;;;;;5038057;28;20017;-75
2022/02/18 01:43:16;;;;;;;1.08;0.60;;;;;;;;;;5054276;28;20441;-75
2022/02/18 01:45:41;;;;;;;2.67;0.85;;;;;;;;;;5054544;28;20017;-72
2022/02/18 01:48:07;;;;;;;2.25;0.88;;;;;;;;;;5055630;28;20056;-73
2022/02/18 01:50:33;;;;;;;1.05;0.60;;;;;;;;;;5053761;28;20371;-73
2022/02/18 01:53:00;;;;;;;2.45;1.10;;;;;;;;;;5054437;28;20061;-72
2022/02/18 01:55:27;;;;;;;2.47;0.70;;;;;;;;;;5055638;28;20028;-72
2022/02/18 01:57:54;;;;;;;0.93;0.73;;;;;;;;;;5055662;28;20029;-72
2022/02/18 02:00:21;;;;;;;0.93;0.70;;;;;;;;;;5054593;28;20028;-72
2022/02/18 02:02:51;;;;;;;2.22;0.82;;;;;;;;;;5054401;28;20053;-72
2022/02/18 02:05:16;;;;;;;1.92;0.95;;;;;;;;;;5055577;28;20060;-72
2022/02/18 02:07:43;;;;;;;1.95;0.85;;;;;;;;;;5054280;28;20029;-72
2022/02/18 02:10:09;;;;;;;1.77;1.00;;;;;;;;;;5054627;28;20493;-72
2022/02/18 02:12:38;;;;;;;2.20;0.75;;;;;;;;;;5054043;28;20024;-72
2022/02/18 02:15:07;;;;;;;1.00;0.82;;;;;;;;;;5054062;28;20039;-72
2022/02/18 02:17:33;;;;;;;1.95;0.68;;;;;;;;;;5053798;28;20111;-72
2022/02/18 02:20:00;;;;;;;2.40;0.70;;;;;;;;;;5053995;28;20045;-73
2022/02/18 02:22:27;;;;;;;2.25;0.90;;;;;;;;;;5054044;28;20043;-72
2022/02/18 02:24:53;;;;;;;2.55;0.80;;;;;;;;;;5053794;28;20041;-73
2022/02/18 02:27:20;;;;;;;4.75;1.08;;;;;;;;;;5054076;28;20421;-73
2022/02/18 02:29:47;;;;;;;3.10;0.80;;;;;;;;;;5053628;28;20047;-73
2022/02/18 02:32:13;;;;;;;4.93;1.20;;;;;;;;;;5053622;28;20027;-73
2022/02/18 02:34:39;;;;;;;1.83;0.63;;;;;;;;;;5053645;28;20017;-73
2022/02/18 02:37:04;;;;;;;1.67;0.93;;;;;;;;;;5054065;28;20024;-72
2022/02/18 02:39:33;;;;;;;1.60;0.73;;;;;;;;;;5053879;28;20029;-72
2022/02/18 02:41:59;;;;;;;1.92;0.93;;;;;;;;;;5053607;28;20171;-72
2022/02/18 02:44:26;;;;;;;2.97;0.95;;;;;;;;;;5053402;28;20374;-73
2022/02/18 02:47:00;;;;;;;2.00;0.80;;;;;;;;;;5053608;28;20029;-73
2022/02/18 02:49:27;;;;;;;2.80;0.68;;;;;;;;;;5053279;28;20411;-73
2022/02/18 02:51:53;;;;;;;0.77;0.60;;;;;;;;;;5036954;28;20048;-72
2022/02/18 02:54:20;;;;;;;0.63;0.52;;;;;;;;;;5054671;28;20037;-73
2022/02/18 02:56:56;;;;;;;1.42;0.50;;;;;;;;;;5037950;28;20094;-72
2022/02/18 02:59:30;;;;;;;2.97;0.93;;;;;;;;;;5053515;28;20029;-72
2022/02/18 03:01:56;;;;;;;2.00;0.70;;;;;;;;;;5052985;28;20132;-73
2022/02/18 03:04:21;;;;;;;1.42;0.60;;;;;;;;;;5052989;28;20028;-73
2022/02/18 03:06:47;;;;;;;1.33;0.73;;;;;;;;;;5053161;28;20025;-71
2022/02/18 03:09:12;;;;;;;1.60;1.00;;;;;;;;;;5036683;28;20029;-71
2022/02/18 03:11:54;;;;;;;1.63;0.80;;;;;;;;;;5052901;28;20029;-72
2022/02/18 03:14:49;;;;;;;1.45;0.70;;;;;;;;;;5053847;28;20539;-72
2022/02/18 03:17:26;;;;;;;2.10;0.60;;;;;;;;;;5052789;28;20029;-72
2022/02/18 03:20:08;;;;;;;0.60;0.52;;;;;;;;;;5052777;28;20505;-72
2022/02/18 03:22:35;;;;;;;1.52;0.70;;;;;;;;;;5052633;28;20090;-72
2022/02/18 03:25:01;;;;;;;0.73;0.60;;;;;;;;;;5052574;28;20464;-72
2022/02/18 03:27:26;;;;;;;2.08;0.60;;;;;;;;;;5052520;28;20413;-72
2022/02/18 03:29:52;;;;;;;3.42;0.93;;;;;;;;;;5052335;28;20096;-73
2022/02/18 03:32:22;;;;;;;0.67;0.67;;;;;;;;;;5052979;28;20468;-73
2022/02/18 03:34:48;;;;;;;1.30;0.60;;;;;;;;;;5052903;28;20513;-73
2022/02/18 03:37:16;;;;;;;2.28;0.88;;;;;;;;;;5052348;28;20033;-73
2022/02/18 03:39:42;;;;;;;2.10;0.90;;;;;;;;;;5052477;28;20454;-72
2022/02/18 03:42:09;;;;;;;2.05;0.50;;;;;;;;;;5052341;28;20061;-72
2022/02/18 03:44:35;;;;;;;1.77;0.73;;;;;;;;;;5052464;28;20066;-73
2022/02/18 03:47:06;;;;;;;1.92;0.50;;;;;;;;;;5052281;28;20102;-73
2022/02/18 03:49:32;;;;;;;0.43;0.40;;;;;;;;;;5052245;28;20489;-73
2022/02/18 03:51:59;;;;;;;1.60;0.80;;;;;;;;;;5052306;28;20025;-74
2022/02/18 03:54:26;;;;;;;0.60;0.32;;;;;;;;;;5052546;28;20029;-72
2022/02/18 03:56:53;;;;;;;1.15;0.60;;;;;;;;;;5035769;28;20020;-72
2022/02/18 03:59:19;;;;;;;2.42;0.90;;;;;;;;;;5052049;28;20060;-72
2022/02/18 04:01:48;;;;;;;3.40;1.20;;;;;;;;;;5052314;28;20021;-71
2022/02/18 04:04:14;;;;;;;1.73;0.70;;;;;;;;;;5052251;28;20036;-71
2022/02/18 04:06:45;;;;;;;2.67;0.90;;;;;;;;;;5051692;28;20532;-71
2022/02/18 04:09:20;;;;;;;1.65;0.80;;;;;;;;;;5052053;28;20037;-72
2022/02/18 04:11:54;;;;;;;2.17;0.90;;;;;;;;;;5051746;28;20029;-72
2022/02/18 04:14:20;;;;;;;2.20;0.98;;;;;;;;;;5051632;28;20070;-72
2022/02/18 04:16:57;;;;;;;1.70;0.80;;;;;;;;;;5052179;28;20025;-72
2022/02/18 04:19:23;;;;;;;1.23;0.60;;;;;;;;;;5052011;28;20032;-71
2022/02/18 04:21:53;;;;;;;1.63;0.88;;;;;;;;;;5036272;28;20021;-72
2022/02/18 04:24:36;;;;;;;2.00;0.88;;;;;;;;;;5052104;28;20406;-72
2022/02/18 04:27:02;;;;;;;2.80;1.02;;;;;;;;;;5052131;28;20028;-72
2022/02/18 04:29:28;;;;;;;1.30;0.77;;;;;;;;;;5052079;28;20023;-72
2022/02/18 04:31:53;;;;;;;0.95;0.73;;;;;;;;;;5051787;28;20029;-72
2022/02/18 04:34:19;;;;;;;1.65;0.55;;;;;;;;;;5053191;28;20025;-72
2022/02/18 04:36:44;;;;;;;1.20;0.80;;;;;;;;;;5053343;28;20029;-71
2022/02/18 04:39:10;;;;;;;1.52;0.90;;;;;;;;;;5053112;28;20398;-72
2022/02/18 04:41:38;;;;;;;2.65;1.02;;;;;;;;;;5053137;28;20041;-75
2022/02/18 04:44:04;;;;;;;1.67;0.70;;;;;;;;;;5051646;28;20028;-73
2022/02/18 04:46:29;;;;;;;2.80;0.95;;;;;;;;;;5051961;28;20029;-73
2022/02/18 04:48:56;;;;;;;1.17;0.47;;;;;;;;;;5034657;28;20051;-73
2022/02/18 04:51:21;;;;;;;2.40;0.95;;;;;;;;;;5053137;28;20020;-73
2022/02/18 04:53:47;;;;;;;2.05;1.02;;;;;;;;;;5035124;28;20497;-72
2022/02/18 04:56:12;;;;;;;2.95;1.55;;;;;;;;;;5052742;28;20021;-71
2022/02/18 04:58:38;;;;;;;1.73;1.27;;;;;;;;;;5051531;28;20471;-73
2022/02/18 05:01:05;;;;;;;2.85;1.33;;;;;;;;;;5052604;28;20104;-74
2022/02/18 05:03:30;;;;;;;4.82;1.10;;;;;;;;;;5051698;28;20170;-73
2022/02/18 05:05:56;;;;;;;1.33;0.60;;;;;;;;;;5052987;28;20028;-74
2022/02/18 05:08:21;;;;;;;3.83;1.10;;;;;;;;;;5052980;28;20028;-74
2022/02/18 05:10:49;;;;;;;2.42;0.88;;;;;;;;;;5051783;28;20047;-75
2022/02/18 05:13:14;;;;;;;2.88;1.23;;;;;;;;;;5051588;28;20534;-75
2022/02/18 05:15:40;;;;;;;2.20;0.93;;;;;;;;;;5051519;28;20052;-74
2022/02/18 05:18:05;;;;;;;2.55;1.20;;;;;;;;;;5052872;28;20112;-74
2022/02/18 05:20:31;;;;;;;3.47;0.95;;;;;;;;;;5052915;28;20078;-74
2022/02/18 05:22:59;;;;;;;1.67;1.00;;;;;;;;;;5052403;28;20104;-74
2022/02/18 05:25:25;;;;;;;1.88;0.88;;;;;;;;;;5054029;28;20124;-74
2022/02/18 05:27:50;;;;;;;1.30;0.77;;;;;;;;;;5054989;28;20024;-74
2022/02/18 05:30:16;;;;;;;3.38;1.02;;;;;;;;;;5055871;28;20033;-74
2022/02/18 05:32:41;;;;;;;3.70;0.98;;;;;;;;;;5055920;28;20095;-74
2022/02/18 05:35:09;;;;;;;2.38;1.10;;;;;;;;;;5055876;28;20024;-74
2022/02/18 05:37:34;;;;;;;2.55;1.13;;;;;;;;;;5055463;28;20025;-73
2022/02/18 05:40:00;;;;;;;2.42;0.85;;;;;;;;;;5055909;28;20040;-73
2022/02/18 05:42:25;;;;;;;1.70;1.10;;;;;;;;;;5056184;28;20053;-73
2022/02/18 05:44:51;;;;;;;2.92;1.08;;;;;;;;;;5056041;28;20030;-73
2022/02/18 05:47:16;;;;;;;3.28;1.20;;;;;;;;;;5054196;28;20052;-73
2022/02/18 05:49:42;;;;;;;1.75;1.23;;;;;;;;;;5054283;28;20033;-73
2022/02/18 05:52:07;;;;;;;1.95;1.38;;;;;;;;;;5054311;28;20079;-73
2022/02/18 05:54:33;;;;;;;4.10;1.45;;;;;;;;;;5055638;28;20083;-73
2022/02/18 05:56:58;;;;;;;1.88;1.17;;;;;;;;;;5054139;28;20029;-73
2022/02/18 05:59:24;;;;;;;3.03;1.15;;;;;;;;;;5054512;28;20123;-73
2022/02/18 06:01:49;;;;;;;1.92;1.30;;;;;;;;;;5055497;28;20017;-73
2022/02/18 06:04:15;;;;;;;3.15;1.30;;;;;;;;;;5055850;28;20194;-73
2022/02/18 06:06:41;;;;;;;2.45;1.02;;;;;;;;;;5055193;28;20032;-73
2022/02/18 06:09:06;;;;;;;2.28;1.15;;;;;;;;;;5055378;28;20033;-73
2022/02/18 06:11:33;;;;;;;4.20;1.80;;;;;;;;;;5055336;28;20013;-73
2022/02/18 06:13:59;;;;;;;4.38;1.80;;;;;;;;;;5054148;28;20029;-72
2022/02/18 06:16:24;;;;;;;2.35;1.55;;;;;;;;;;5053881;28;20029;-71
2022/02/18 06:18:50;;;;;;;1.88;1.42;;;;;;;;;;5053784;28;20033;-73
2022/02/18 06:21:21;;;;;;;1.27;1.17;;;;;;;;;;5055044;28;20029;-73
2022/02/18 06:23:46;;;;;;;3.10;1.08;;;;;;;;;;5053625;28;20533;-73
2022/02/18 06:26:11;;;;;;;2.47;1.40;;;;;;;;;;5054909;28;20020;-73
2022/02/18 06:28:37;;;;;;;3.03;1.20;;;;;;;;;;5053648;28;20021;-73
2022/02/18 06:31:04;;;;;;;3.10;1.33;;;;;;;;;;5054952;28;20052;-73
2022/02/18 06:33:29;;;;;;;2.30;1.30;;;;;;;;;;5053665;28;20477;-73
2022/02/18 06:35:54;;;;;;;2.65;1.48;;;;;;;;;;5054263;28;20009;-73
2022/02/18 06:38:20;;;;;;;3.60;1.73;;;;;;;;;;5053377;28;20462;-73
2022/02/18 06:40:46;;;;;;;3.65;1.40;;;;;;;;;;5036740;28;20025;-73
2022/02/18 06:43:11;;;;;;;1.73;1.33;;;;;;;;;;5053332;28;20025;-73
2022/02/18 06:45:37;;;;;;;3.30;1.83;;;;;;;;;;5054451;28;20391;-73
2022/02/18 06:48:03;;;;;;;1.58;1.30;;;;;;;;;;5054077;28;20124;-73
2022/02/18 06:50:28;;;;;;;3.78;1.45;;;;;;;;;;5054355;28;20506;-73
2022/02/18 06:52:54;;;;;;;3.63;1.80;;;;;;;;;;5054082;28;20113;-73
2022/02/18 06:55:24;;;;;;;1.55;0.80;;;;;;;;;;5054390;28;20052;-73
2022/02/18 06:57:52;;;;;;;2.08;1.27;;;;;;;;;;5054200;28;20025;-74
2022/02/18 07:00:17;;;;;;;2.20;1.40;;;;;;;;;;5054094;28;20098;-73
2022/02/18 07:02:43;;;;;;;2.88;1.40;;;;;;;;;;5054238;28;20052;-73
2022/02/18 07:05:09;;;;;;;5.43;1.50;;;;;;;;;;5054336;28;20108;-73
2022/02/18 07:07:37;;;;;;;1.92;1.35;;;;;;;;;;5053969;28;20112;-73
2022/02/18 07:10:06;;;;;;;1.88;1.55;;;;;;;;;;5052597;28;20099;-73
2022/02/18 07:12:32;;;;;;;1.83;1.02;;;;;;;;;;5052665;28;20045;-73
2022/02/18 07:14:57;;;;;;;3.35;1.70;;;;;;;;;;5053844;28;20044;-73
2022/02/18 07:17:25;;;;;;;2.72;1.60;;;;;;;;;;5052665;28;20117;-73
2022/02/18 07:19:51;;;;;;;2.30;1.20;;;;;;;;;;5052549;28;20025;-73
2022/02/18 07:22:17;;;;;;;2.38;1.10;;;;;;;;;;5053665;28;20439;-73
2022/02/18 07:24:43;;;;;;;2.50;1.45;;;;;;;;;;5053778;28;20059;-73
2022/02/18 07:27:09;;;;;;;4.25;1.35;;;;;;;;;;5053755;28;20441;-73
2022/02/18 07:29:34;;;;;;;5.68;2.10;;;;;;;;;;5053699;28;20017;-73
2022/02/18 07:32:01;;;;;;;5.82;1.35;;;;;;;;;;5053575;28;20383;-73
2022/02/18 07:34:26;;;;;;;5.50;2.13;;;;;;;;;;5053502;28;20066;-73
2022/02/18 07:36:51;;;;;;;1.58;1.05;;;;;;;;;;5052184;28;20029;-73
2022/02/18 07:39:17;;;;;;;1.00;0.77;;;;;;;;;;5053387;28;20051;-74
2022/02/18 07:41:42;;;;;;;5.50;2.03;;;;;;;;;;5052221;28;20429;-73
2022/02/18 07:44:08;;;;;;;2.35;1.17;;;;;;;;;;5052250;28;20027;-74
2022/02/18 07:46:33;;;;;;;4.35;1.50;;;;;;;;;;5051656;28;20043;-75
2022/02/18 07:48:58;;;;;;;2.75;1.55;;;;;;;;;;5052562;28;20049;-74
2022/02/18 07:51:24;;;;;;;3.30;1.25;;;;;;;;;;5053363;28;20036;-73
2022/02/18 07:53:49;;;;;;;2.85;1.70;;;;;;;;;;5052147;28;20048;-73
2022/02/18 07:56:16;;;;;;;5.53;1.60;;;;;;;;;;5053126;28;20033;-74
2022/02/18 07:58:42;;;;;;;5.10;1.73;;;;;;;;;;5053175;28;20087;-73
2022/02/18 08:01:12;;;;;;;4.28;1.80;;;;;;;;;;5053147;28;20544;-72
2022/02/18 08:03:38;;;;;;;3.33;1.13;;;;;;;;;;5053064;28;20033;-72
2022/02/18 08:06:03;;;;;;;3.85;1.42;;;;;;;;;;5053027;28;20097;-72
2022/02/18 08:08:29;;;;;;;5.25;1.73;;;;;;;;;;5051868;28;20033;-72
2022/02/18 08:10:54;;;;;;;3.65;1.25;;;;;;;;;;5051799;28;20017;-72
2022/02/18 08:13:20;;;;;;;4.47;1.55;;;;;;;;;;5051842;28;20032;-72
2022/02/18 08:15:45;;;;;;;2.63;1.17;;;;;;;;;;5051766;28;20078;-72
2022/02/18 08:18:11;;;;;;;4.82;1.90;;;;;;;;;;5053056;28;20041;-72
2022/02/18 08:20:37;;;;;;;4.32;1.35;;;;;;;;;;5051780;28;20074;-72
2022/02/18 08:23:02;;;;;;;4.97;1.50;;;;;;;;;;5052937;28;20412;-75
2022/02/18 08:25:27;;;;;;;5.32;2.03;;;;;;;;;;5052956;28;20025;-74
2022/02/18 08:27:53;;;;;;;3.67;1.40;;;;;;;;;;5052954;28;20025;-74
2022/02/18 08:30:18;;;;;;;3.25;1.48;;;;;;;;;;5052828;28;20040;-74
2022/02/18 08:32:44;;;;;;;4.53;1.58;;;;;;;;;;5051673;28;20074;-75
2022/02/18 08:35:09;;;;;;;3.08;1.70;;;;;;;;;;5051739;28;20463;-74
2022/02/18 08:37:35;;;;;;;4.25;1.70;;;;;;;;;;5051666;28;20029;-75
2022/02/18 08:40:00;;;;;;;3.50;1.10;;;;;;;;;;5052482;28;20517;-75
2022/02/18 08:42:26;;;;;;;1.83;0.98;;;;;;;;;;5051845;28;20439;-76
2022/02/18 08:44:51;;;;;;;3.17;1.40;;;;;;;;;;5052695;28;20029;-77
2022/02/18 08:47:18;;;;;;;2.13;1.67;;;;;;;;;;5051291;28;20044;-75
2022/02/18 08:49:43;;;;;;;5.63;1.42;;;;;;;;;;5034867;28;20479;-73
2022/02/18 08:52:09;;;;;;;1.38;0.77;;;;;;;;;;5052744;28;20044;-74
2022/02/18 08:54:34;;;;;;;2.67;1.17;;;;;;;;;;5051435;28;20017;-74
2022/02/18 08:57:00;;;;;;;4.32;1.17;;;;;;;;;;5051377;28;20029;-74
2022/02/18 08:59:25;;;;;;;2.83;1.38;;;;;;;;;;5053351;28;20070;-74
2022/02/18 09:01:51;;;;;;;2.92;1.05;;;;;;;;;;5055304;28;20468;-74
2022/02/18 09:04:16;;;;;;;3.03;1.20;;;;;;;;;;5038642;28;20029;-74
2022/02/18 09:06:42;;;;;;;7.22;1.55;;;;;;;;;;5056361;28;20590;-75
2022/02/18 09:09:07;;;;;;;1.60;0.93;;;;;;;;;;5056184;28;20051;-75
2022/02/18 09:11:33;;;;;;;4.80;1.23;;;;;;;;;;5054987;28;20021;-75
2022/02/18 09:13:58;;;;;;;4.03;1.40;;;;;;;;;;5056168;28;20044;-75
2022/02/18 09:16:24;;;;;;;1.02;0.70;;;;;;;;;;5054820;28;20115;-75
2022/02/18 09:18:56;;;;;;;2.45;1.40;;;;;;;;;;5054923;28;20012;-71
2022/02/18 09:21:21;;;;;;;2.78;1.15;;;;;;;;;;5056066;28;20067;-74
2022/02/18 09:23:46;;;;;;;5.05;1.48;;;;;;;;;;5056042;28;20071;-74
2022/02/18 09:26:12;;;;;;;1.48;1.05;;;;;;;;;;5055868;28;20025;-74
2022/02/18 09:28:37;;;;;;;2.42;0.98;;;;;;;;;;5054747;28;20032;-74
2022/02/18 09:31:03;;;;;;;2.60;1.20;;;;;;;;;;5054514;28;20392;-74
2022/02/18 09:33:29;;;;;;;2.40;1.15;;;;;;;;;;5055128;28;20021;-74
2022/02/18 09:35:55;;;;;;;2.10;1.23;;;;;;;;;;5055730;28;20039;-74
2022/02/18 09:38:21;;;;;;;2.67;1.30;;;;;;;;;;5055747;28;20519;-75
2022/02/18 09:40:46;;;;;;;2.80;1.23;;;;;;;;;;5055414;28;20391;-74
2022/02/18 09:43:12;;;;;;;0.70;0.50;;;;;;;;;;5055646;28;20071;-74
2022/02/18 09:45:38;;;;;;;1.55;0.93;;;;;;;;;;5054266;28;20041;-74
2022/02/18 09:48:03;;;;;;;3.67;1.15;;;;;;;;;;5055349;28;20080;-74
2022/02/18 09:50:29;;;;;;;0.70;0.70;;;;;;;;;;5054282;28;20044;-74
2022/02/18 09:52:55;;;;;;;2.78;1.30;;;;;;;;;;5055574;28;20017;-74
2022/02/18 09:55:20;;;;;;;1.95;0.80;;;;;;;;;;5054155;28;20025;-74
2022/02/18 09:57:50;;;;;;;2.67;0.85;;;;;;;;;;5055299;28;20032;-74
2022/02/18 10:00:16;;;;;;;4.13;1.38;;;;;;;;;;5055472;28;20037;-74
2022/02/18 10:02:41;;;;;;;2.25;0.90;;;;;;;;;;5055434;28;20025;-74
2022/02/18 10:05:07;;;;;;;3.53;1.20;;;;;;;;;;5054121;28;20029;-74
2022/02/18 10:07:33;;;;;;;1.88;1.00;;;;;;;;;;5055168;28;20430;-74
2022/02/18 10:09:58;;;;;;;3.00;1.10;;;;;;;;;;5053167;28;20032;-74
2022/02/18 10:12:33;;;;;;;2.83;1.13;;;;;;;;;;5053577;28;20056;-74
2022/02/18 10:15:00;;;;;;;3.92;1.30;;;;;;;;;;5053921;28;20033;-74
2022/02/18 10:17:42;;;;;;;3.33;1.00;;;;;;;;;;5055118;28;20023;-74
2022/02/18 10:20:18;;;;;;;2.55;1.02;;;;;;;;;;5055000;28;20032;-74
2022/02/18 10:22:56;;;;;;;3.35;1.27;;;;;;;;;;5054931;28;20025;-74
2022/02/18 10:25:26;;;;;;;1.88;0.85;;;;;;;;;;5053642;28;20033;-74
2022/02/18 10:27:52;;;;;;;1.00;0.63;;;;;;;;;;5054969;28;20032;-74
2022/02/18 10:30:25;;;;;;;0.95;0.40;;;;;;;;;;5053452;28;20467;-74
2022/02/18 10:32:56;;;;;;;0.47;0.40;;;;;;;;;;5054783;28;20112;-74
2022/02/18 10:35:31;;;;;;;2.50;1.20;;;;;;;;;;5054514;28;20521;-74
2022/02/18 10:37:58;;;;;;;3.13;0.65;;;;;;;;;;5053583;28;20398;-74
2022/02/18 10:40:23;;;;;;;2.35;1.00;;;;;;;;;;5054585;28;20025;-74
2022/02/18 10:42:50;;;;;;;1.98;1.10;;;;;;;;;;5054788;28;20029;-74
2022/02/18 10:45:24;;;;;;;2.78;1.00;;;;;;;;;;5054585;28;20028;-75
2022/02/18 10:47:51;;;;;;;1.23;0.80;;;;;;;;;;5054161;28;20041;-75
2022/02/18 10:50:21;;;;;;;2.42;0.93;;;;;;;;;;5054541;28;20545;-71
2022/02/18 10:53:05;;;;;;;2.35;0.73;;;;;;;;;;5053358;28;20036;-75
2022/02/18 10:55:31;;;;;;;2.50;1.02;;;;;;;;;;5053122;28;20039;-75
2022/02/18 10:58:03;;;;;;;1.92;1.17;;;;;;;;;;5054819;28;20096;-75
2022/02/18 11:00:29;;;;;;;2.92;1.20;;;;;;;;;;5053275;28;20079;-75
2022/02/18 11:02:57;;;;;;;4.20;1.30;;;;;;;;;;5053021;28;20045;-76
2022/02/18 11:05:24;;;;;;;3.25;1.30;;;;;;;;;;5069366;28;20131;-75
2022/02/18 11:07:50;;;;;;;3.05;1.42;;;;;;;;;;5052906;28;20067;-76
2022/02/18 11:10:39;;;;;;;2.53;1.08;;;;;;;;;;5052761;28;20099;-75
2022/02/18 11:13:05;;;;;;;1.77;0.65;;;;;;;;;;5052983;28;20458;-76
2022/02/18 11:15:31;;;;;;;2.20;1.13;;;;;;;;;;5054022;28;20028;-76
2022/02/18 11:17:58;;;;;;;1.77;1.10;;;;;;;;;;5053835;28;20508;-76
2022/02/18 11:20:25;;;;;;;3.72;1.48;;;;;;;;;;5052828;28;20063;-76
2022/02/18 11:22:54;;;;;;;4.00;1.23;;;;;;;;;;5053831;28;20037;-75
2022/02/18 11:25:21;;;;;;;2.47;1.02;;;;;;;;;;5052503;28;20029;-75
2022/02/18 11:27:47;;;;;;;4.88;1.17;;;;;;;;;;5053706;28;20082;-76
2022/02/18 11:30:13;;;;;;;2.60;1.15;;;;;;;;;;5053518;28;20033;-75
2022/02/18 11:32:58;;;;;;;11.40;3.50;;;;;;;;;;5052545;28;20426;-76
2022/02/18 11:35:36;;;;;;;3.65;1.20;;;;;;;;;;5035466;28;20033;-75
2022/02/18 11:38:25;;;;;;;2.30;1.23;;;;;;;;;;5053647;28;20032;-75
2022/02/18 11:41:05;;;;;;;3.25;1.17;;;;;;;;;;5046635;28;20052;-76
2022/02/18 11:43:34;;;;;;;1.65;1.33;;;;;;;;;;5053516;28;20118;-75
2022/02/18 11:46:01;;;;;;;4.45;1.13;;;;;;;;;;5035465;28;20039;-75
2022/02/18 11:48:46;;;;;;;1.15;0.60;;;;;;;;;;5052868;28;20190;-75
2022/02/18 11:51:14;;;;;;;2.40;1.10;;;;;;;;;;5053284;28;20075;-75
2022/02/18 11:53:44;;;;;;;4.53;1.42;;;;;;;;;;5052162;28;20426;-75
2022/02/18 11:56:10;;;;;;;2.97;1.27;;;;;;;;;;5053338;28;20463;-75
2022/02/18 11:58:49;;;;;;;6.32;1.40;;;;;;;;;;5053139;28;20260;-75
2022/02/18 12:01:15;;;;;;;5.47;1.58;;;;;;;;;;5051794;28;20033;-75
2022/02/18 12:03:40;;;;;;;4.30;1.63;;;;;;;;;;5053419;28;20033;-75
2022/02/18 12:06:12;;;;;;;3.38;1.55;;;;;;;;;;5053442;28;20056;-75
2022/02/18 12:08:39;;;;;;;1.58;1.05;;;;;;;;;;5051993;28;20056;-75
2022/02/18 12:11:14;;;;;;;2.40;1.30;;;;;;;;;;5051870;28;20025;-70
2022/02/18 12:13:50;;;;;;;1.63;1.05;;;;;;;;;;5051851;28;20395;-71
2022/02/18 12:16:18;;;;;;;2.08;1.50;;;;;;;;;;5051656;28;20107;-72
2022/02/18 12:19:06;;;;;;;3.78;1.92;;;;;;;;;;5051799;28;20132;-71
2022/02/18 12:21:34;;;;;;;3.03;1.60;;;;;;;;;;5053128;28;20033;-71
2022/02/18 12:24:21;;;;;;;1.52;1.13;;;;;;;;;;5051697;28;20163;-71
2022/02/18 12:26:47;;;;;;;4.03;1.85;;;;;;;;;;5048916;28;20041;-71
2022/02/18 12:29:16;;;;;;;5.57;2.13;;;;;;;;;;5052904;28;20021;-71
2022/02/18 12:31:48;;;;;;;2.17;1.55;;;;;;;;;;5053143;28;20033;-71
2022/02/18 12:34:24;;;;;;;1.58;0.85;;;;;;;;;;5053475;28;20033;-71
2022/02/18 12:36:51;;;;;;;1.33;0.73;;;;;;;;;;5057104;28;20087;-71
2022/02/18 12:39:35;;;;;;;3.53;1.33;;;;;;;;;;5055718;28;20020;-71
2022/02/18 12:42:07;;;;;;;4.18;1.52;;;;;;;;;;5055466;28;20040;-71
2022/02/18 12:44:32;;;;;;;3.28;1.65;;;;;;;;;;5056813;28;20021;-71
2022/02/18 12:46:58;;;;;;;3.65;1.55;;;;;;;;;;5055659;28;20487;-71
2022/02/18 12:49:38;;;;;;;4.22;1.33;;;;;;;;;;5056507;28;20048;-71
2022/02/18 12:52:07;;;;;;;1.55;1.45;;;;;;;;;;5055618;28;20025;-71
2022/02/18 12:54:46;;;;;;;4.30;1.70;;;;;;;;;;5055473;28;20017;-71
2022/02/18 12:57:19;;;;;;;4.10;1.77;;;;;;;;;;5056512;28;20029;-71
2022/02/18 12:59:47;;;;;;;2.22;1.50;;;;;;;;;;5056716;28;20061;-71
2022/02/18 13:02:32;;;;;;;4.13;1.80;;;;;;;;;;5056564;28;20032;-71
2022/02/18 13:05:04;;;;;;;4.68;1.92;;;;;;;;;;5055155;28;20094;-71
2022/02/18 13:07:32;;;;;;;3.33;1.40;;;;;;;;;;5056472;28;20036;-71
2022/02/18 13:09:58;;;;;;;3.28;1.63;;;;;;;;;;5055079;28;20021;-71
2022/02/18 13:12:23;;;;;;;3.78;1.73;;;;;;;;;;5054666;28;20024;-71
2022/02/18 13:15:02;;;;;;;4.18;1.58;;;;;;;;;;5056246;28;20032;-70
2022/02/18 13:17:27;;;;;;;4.43;1.92;;;;;;;;;;5056413;28;20069;-70
2022/02/18 13:19:53;;;;;;;5.05;1.63;;;;;;;;;;5056273;28;20053;-70
2022/02/18 13:22:29;;;;;;;1.27;1.17;;;;;;;;;;5054867;28;20039;-70
2022/02/18 13:24:54;;;;;;;1.52;1.05;;;;;;;;;;5055010;28;20086;-70
2022/02/18 13:27:20;;;;;;;1.52;1.20;;;;;;;;;;5054846;28;20111;-70
2022/02/18 13:29:48;;;;;;;2.78;1.45;;;;;;;;;;5055896;28;20021;-70
2022/02/18 13:32:20;;;;;;;3.17;1.83;;;;;;;;;;5055827;28;20459;-71
2022/02/18 13:34:49;;;;;;;2.58;1.33;;;;;;;;;;5055755;28;20072;-70
2022/02/18 13:37:17;;;;;;;3.53;1.65;;;;;;;;;;5055791;28;20032;-70
2022/02/18 13:39:46;;;;;;;4.40;1.33;;;;;;;;;;5055794;28;20521;-70
2022/02/18 13:42:12;;;;;;;4.03;1.10;;;;;;;;;;5055596;28;20368;-70
2022/02/18 13:44:57;;;;;;;3.15;1.38;;;;;;;;;;5055291;28;20035;-71
2022/02/18 13:47:23;;;;;;;2.72;1.63;;;;;;;;;;5035450;28;20033;-71
2022/02/18 13:49:48;;;;;;;2.15;1.38;;;;;;;;;;5036067;28;20034;-70
2022/02/18 13:52:14;;;;;;;3.03;1.70;;;;;;;;;;5035954;28;20032;-70
2022/02/18 13:54:41;;;;;;;4.53;2.00;;;;;;;;;;5035930;28;20100;-70
2022/02/18 13:57:08;;;;;;;1.83;1.38;;;;;;;;;;5035739;28;20041;-70
2022/02/18 13:59:34;;;;;;;1.38;1.10;;;;;;;;;;5018080;28;20371;-70
2022/02/18 14:02:13;;;;;;;3.30;1.70;;;;;;;;;;5034409;28;20033;-70
2022/02/18 14:04:44;;;;;;;0.60;0.60;;;;;;;;;;5036926;28;20040;-70
2022/02/18 14:07:11;;;;;;;3.40;1.88;;;;;;;;;;5050011;28;20379;-70
2022/02/18 14:09:40;;;;;;;2.33;1.35;;;;;;;;;;5055061;28;20116;-70
2022/02/18 14:12:06;;;;;;;2.65;1.88;;;;;;;;;;5055282;28;20037;-70
2022/02/18 14:14:31;;;;;;;3.08;1.65;;;;;;;;;;5054048;28;20017;-70
2022/02/18 14:16:57;;;;;;;4.60;1.75;;;;;;;;;;5055233;28;20033;-70
2022/02/18 14:19:41;;;;;;;4.03;1.40;;;;;;;;;;5055037;28;20490;-70
2022/02/18 14:22:07;;;;;;;2.90;1.75;;;;;;;;;;5055673;28;20112;-71
2022/02/18 14:24:34;;;;;;;2.55;1.52;;;;;;;;;;5055324;28;20049;-70
2022/02/18 14:27:00;;;;;;;3.33;1.67;;;;;;;;;;5053799;28;20079;-70
2022/02/18 14:29:25;;;;;;;5.68;2.08;;;;;;;;;;5055049;28;20021;-70
2022/02/18 14:31:57;;;;;;;1.45;0.80;;;;;;;;;;5054545;28;20032;-70
2022/02/18 14:34:24;;;;;;;2.92;1.08;;;;;;;;;;5033638;28;20383;-69
2022/02/18 14:36:58;;;;;;;3.72;1.67;;;;;;;;;;5041379;28;20024;-70
2022/02/18 14:39:24;;;;;;;5.38;1.63;;;;;;;;;;5052228;28;20024;-70
2022/02/18 14:42:05;;;;;;;3.42;1.35;;;;;;;;;;5055045;28;20099;-70
2022/02/18 14:44:49;;;;;;;1.80;1.02;;;;;;;;;;5054810;28;20057;-70
2022/02/18 14:47:17;;;;;;;3.75;1.88;;;;;;;;;;5053978;28;20040;-70